sensor_id;sensor_type;location;lat;lon;timestamp;P1;durP1;ratioP1;P2;durP2;ratioP2
78838;SDS011;68405;47.190;27.558;2023-07-28T00:00:21;3.70;;;2.00;;
78838;SDS011;68405;47.190;27.558;2023-07-28T00:03:10;2.30;;;1.70;;
78838;SDS011;68405;47.190;27.558;2023-07-28T00:05:39;3.70;;;2.20;;
78838;SDS011;68405;47.190;27.558;2023-07-28T00:08:08;3.40;;;2.10;;
78838;SDS011;68405;47.190;27.558;2023-07-28T00:10:40;2.90;;;2.10;;
78838;SDS011;68405;47.190;27.558;2023-07-28T00:13:10;3.40;;;1.70;;
78838;SDS011;68405;47.190;27.558;2023-07-28T00:15:38;4.20;;;2.20;;
78838;SDS011;68405;47.190;27.558;2023-07-28T00:18:07;2.60;;;1.70;;
78838;SDS011;68405;47.190;27.558;2023-07-28T00:20:36;3.70;;;2.10;;
78838;SDS011;68405;47.190;27.558;2023-07-28T00:23:05;5.50;;;1.70;;
78838;SDS011;68405;47.190;27.558;2023-07-28T00:25:34;2.50;;;1.90;;
78838;SDS011;68405;47.190;27.558;2023-07-28T00:28:03;3.30;;;2.20;;
78838;SDS011;68405;47.190;27.558;2023-07-28T00:30:32;3.50;;;1.80;;
78838;SDS011;68405;47.190;27.558;2023-07-28T00:33:01;5.20;;;2.10;;
78838;SDS011;68405;47.190;27.558;2023-07-28T00:35:30;2.70;;;1.90;;
78838;SDS011;68405;47.190;27.558;2023-07-28T00:38:02;2.60;;;2.10;;
78838;SDS011;68405;47.190;27.558;2023-07-28T00:40:30;2.90;;;2.10;;
78838;SDS011;68405;47.190;27.558;2023-07-28T00:42:59;5.70;;;2.00;;
78838;SDS011;68405;47.190;27.558;2023-07-28T00:45:28;5.80;;;2.30;;
78838;SDS011;68405;47.190;27.558;2023-07-28T00:47:58;3.50;;;2.10;;
78838;SDS011;68405;47.190;27.558;2023-07-28T00:50:27;2.40;;;1.70;;
78838;SDS011;68405;47.190;27.558;2023-07-28T00:52:56;3.10;;;2.30;;
78838;SDS011;68405;47.190;27.558;2023-07-28T00:55:25;2.90;;;2.30;;
78838;SDS011;68405;47.190;27.558;2023-07-28T00:57:54;2.90;;;1.90;;
78838;SDS011;68405;47.190;27.558;2023-07-28T01:00:24;3.30;;;2.10;;
78838;SDS011;68405;47.190;27.558;2023-07-28T01:02:53;3.50;;;2.50;;
78838;SDS011;68405;47.190;27.558;2023-07-28T01:05:22;3.90;;;2.40;;
78838;SDS011;68405;47.190;27.558;2023-07-28T01:08:01;2.60;;;1.90;;
78838;SDS011;68405;47.190;27.558;2023-07-28T01:10:34;3.10;;;1.70;;
78838;SDS011;68405;47.190;27.558;2023-07-28T01:13:05;3.30;;;1.70;;
78838;SDS011;68405;47.190;27.558;2023-07-28T01:15:35;3.00;;;2.20;;
78838;SDS011;68405;47.190;27.558;2023-07-28T01:18:04;2.50;;;1.70;;
78838;SDS011;68405;47.190;27.558;2023-07-28T01:20:33;2.80;;;2.10;;
78838;SDS011;68405;47.190;27.558;2023-07-28T01:23:08;5.60;;;2.50;;
78838;SDS011;68405;47.190;27.558;2023-07-28T01:25:49;2.80;;;1.90;;
78838;SDS011;68405;47.190;27.558;2023-07-28T01:28:23;3.10;;;1.90;;
78838;SDS011;68405;47.190;27.558;2023-07-28T01:30:52;3.00;;;2.10;;
78838;SDS011;68405;47.190;27.558;2023-07-28T01:33:21;3.40;;;2.30;;
78838;SDS011;68405;47.190;27.558;2023-07-28T01:35:50;3.30;;;2.30;;
78838;SDS011;68405;47.190;27.558;2023-07-28T01:38:19;4.60;;;2.10;;
78838;SDS011;68405;47.190;27.558;2023-07-28T01:40:48;2.70;;;2.00;;
78838;SDS011;68405;47.190;27.558;2023-07-28T01:43:17;2.40;;;1.80;;
78838;SDS011;68405;47.190;27.558;2023-07-28T01:45:46;3.20;;;2.30;;
78838;SDS011;68405;47.190;27.558;2023-07-28T01:48:15;3.90;;;2.00;;
78838;SDS011;68405;47.190;27.558;2023-07-28T01:50:44;3.60;;;1.60;;
78838;SDS011;68405;47.190;27.558;2023-07-28T01:53:13;1.70;;;1.60;;
78838;SDS011;68405;47.190;27.558;2023-07-28T01:55:42;2.50;;;1.80;;
78838;SDS011;68405;47.190;27.558;2023-07-28T01:58:11;2.80;;;1.70;;
78838;SDS011;68405;47.190;27.558;2023-07-28T02:00:40;2.40;;;1.90;;
78838;SDS011;68405;47.190;27.558;2023-07-28T02:03:09;2.50;;;2.10;;
78838;SDS011;68405;47.190;27.558;2023-07-28T02:05:38;3.60;;;1.80;;
78838;SDS011;68405;47.190;27.558;2023-07-28T02:08:07;4.70;;;1.90;;
78838;SDS011;68405;47.190;27.558;2023-07-28T02:10:36;2.80;;;1.70;;
78838;SDS011;68405;47.190;27.558;2023-07-28T02:13:05;2.80;;;1.90;;
78838;SDS011;68405;47.190;27.558;2023-07-28T02:15:34;2.70;;;2.00;;
78838;SDS011;68405;47.190;27.558;2023-07-28T02:18:03;3.30;;;2.00;;
78838;SDS011;68405;47.190;27.558;2023-07-28T02:20:31;3.20;;;1.80;;
78838;SDS011;68405;47.190;27.558;2023-07-28T02:23:02;3.90;;;2.20;;
78838;SDS011;68405;47.190;27.558;2023-07-28T02:25:31;1.70;;;1.60;;
78838;SDS011;68405;47.190;27.558;2023-07-28T02:28:00;2.10;;;1.60;;
78838;SDS011;68405;47.190;27.558;2023-07-28T02:30:29;3.10;;;2.10;;
78838;SDS011;68405;47.190;27.558;2023-07-28T02:32:58;4.40;;;2.00;;
78838;SDS011;68405;47.190;27.558;2023-07-28T02:35:27;2.60;;;1.90;;
78838;SDS011;68405;47.190;27.558;2023-07-28T02:37:58;2.30;;;2.00;;
78838;SDS011;68405;47.190;27.558;2023-07-28T02:40:27;4.20;;;2.10;;
78838;SDS011;68405;47.190;27.558;2023-07-28T02:42:56;2.60;;;2.00;;
78838;SDS011;68405;47.190;27.558;2023-07-28T02:45:25;2.90;;;2.00;;
78838;SDS011;68405;47.190;27.558;2023-07-28T02:47:55;3.30;;;2.10;;
78838;SDS011;68405;47.190;27.558;2023-07-28T02:50:24;2.80;;;1.90;;
78838;SDS011;68405;47.190;27.558;2023-07-28T02:52:53;5.70;;;2.30;;
78838;SDS011;68405;47.190;27.558;2023-07-28T02:55:21;3.20;;;2.30;;
78838;SDS011;68405;47.190;27.558;2023-07-28T02:57:50;3.70;;;2.00;;
78838;SDS011;68405;47.190;27.558;2023-07-28T03:00:20;2.70;;;1.90;;
78838;SDS011;68405;47.190;27.558;2023-07-28T03:02:48;4.00;;;2.20;;
78838;SDS011;68405;47.190;27.558;2023-07-28T03:05:17;3.00;;;2.10;;
78838;SDS011;68405;47.190;27.558;2023-07-28T03:07:48;3.60;;;2.30;;
78838;SDS011;68405;47.190;27.558;2023-07-28T03:10:17;3.30;;;2.40;;
78838;SDS011;68405;47.190;27.558;2023-07-28T03:12:46;2.80;;;2.00;;
78838;SDS011;68405;47.190;27.558;2023-07-28T03:15:15;4.10;;;2.50;;
78838;SDS011;68405;47.190;27.558;2023-07-28T03:17:44;2.90;;;2.20;;
78838;SDS011;68405;47.190;27.558;2023-07-28T03:20:13;3.80;;;2.20;;
78838;SDS011;68405;47.190;27.558;2023-07-28T03:22:42;3.10;;;2.00;;
78838;SDS011;68405;47.190;27.558;2023-07-28T03:25:12;3.40;;;1.90;;
78838;SDS011;68405;47.190;27.558;2023-07-28T03:27:41;2.30;;;2.00;;
78838;SDS011;68405;47.190;27.558;2023-07-28T03:30:10;3.40;;;2.10;;
78838;SDS011;68405;47.190;27.558;2023-07-28T03:32:39;4.80;;;2.30;;
78838;SDS011;68405;47.190;27.558;2023-07-28T03:35:09;3.20;;;2.10;;
78838;SDS011;68405;47.190;27.558;2023-07-28T03:37:39;3.10;;;2.00;;
78838;SDS011;68405;47.190;27.558;2023-07-28T03:40:08;3.10;;;2.00;;
78838;SDS011;68405;47.190;27.558;2023-07-28T03:42:38;6.00;;;2.00;;
78838;SDS011;68405;47.190;27.558;2023-07-28T03:45:08;2.30;;;1.70;;
78838;SDS011;68405;47.190;27.558;2023-07-28T03:47:38;4.30;;;2.20;;
78838;SDS011;68405;47.190;27.558;2023-07-28T03:50:08;5.10;;;2.30;;
78838;SDS011;68405;47.190;27.558;2023-07-28T03:52:37;5.50;;;2.70;;
78838;SDS011;68405;47.190;27.558;2023-07-28T03:55:07;3.40;;;2.20;;
78838;SDS011;68405;47.190;27.558;2023-07-28T03:57:36;4.80;;;2.60;;
78838;SDS011;68405;47.190;27.558;2023-07-28T04:00:07;4.70;;;2.70;;
78838;SDS011;68405;47.190;27.558;2023-07-28T04:02:37;6.00;;;3.00;;
78838;SDS011;68405;47.190;27.558;2023-07-28T04:05:07;6.20;;;3.00;;
78838;SDS011;68405;47.190;27.558;2023-07-28T04:07:36;6.10;;;3.20;;
78838;SDS011;68405;47.190;27.558;2023-07-28T04:10:06;5.90;;;3.20;;
78838;SDS011;68405;47.190;27.558;2023-07-28T04:12:35;6.90;;;3.50;;
78838;SDS011;68405;47.190;27.558;2023-07-28T04:15:06;6.10;;;3.00;;
78838;SDS011;68405;47.190;27.558;2023-07-28T04:17:36;8.40;;;3.70;;
78838;SDS011;68405;47.190;27.558;2023-07-28T04:20:06;8.70;;;3.70;;
78838;SDS011;68405;47.190;27.558;2023-07-28T04:22:36;5.80;;;3.00;;
78838;SDS011;68405;47.190;27.558;2023-07-28T04:25:06;5.50;;;3.10;;
78838;SDS011;68405;47.190;27.558;2023-07-28T04:27:36;5.30;;;3.00;;
78838;SDS011;68405;47.190;27.558;2023-07-28T04:30:06;8.40;;;3.20;;
78838;SDS011;68405;47.190;27.558;2023-07-28T04:32:35;6.50;;;2.80;;
78838;SDS011;68405;47.190;27.558;2023-07-28T04:35:05;5.00;;;2.30;;
78838;SDS011;68405;47.190;27.558;2023-07-28T04:37:35;4.70;;;2.70;;
78838;SDS011;68405;47.190;27.558;2023-07-28T04:40:05;5.70;;;2.80;;
78838;SDS011;68405;47.190;27.558;2023-07-28T04:42:35;3.50;;;2.40;;
78838;SDS011;68405;47.190;27.558;2023-07-28T04:45:06;4.70;;;3.50;;
78838;SDS011;68405;47.190;27.558;2023-07-28T04:47:35;4.90;;;3.80;;
78838;SDS011;68405;47.190;27.558;2023-07-28T04:50:05;8.80;;;4.40;;
78838;SDS011;68405;47.190;27.558;2023-07-28T04:52:35;8.60;;;5.80;;
78838;SDS011;68405;47.190;27.558;2023-07-28T04:55:05;9.70;;;6.50;;
78838;SDS011;68405;47.190;27.558;2023-07-28T04:57:35;10.00;;;7.50;;
78838;SDS011;68405;47.190;27.558;2023-07-28T05:00:05;9.60;;;7.30;;
78838;SDS011;68405;47.190;27.558;2023-07-28T05:02:36;8.50;;;6.10;;
78838;SDS011;68405;47.190;27.558;2023-07-28T05:05:05;9.90;;;7.20;;
78838;SDS011;68405;47.190;27.558;2023-07-28T05:07:35;7.30;;;5.70;;
78838;SDS011;68405;47.190;27.558;2023-07-28T05:10:05;8.30;;;6.10;;
78838;SDS011;68405;47.190;27.558;2023-07-28T05:12:34;6.70;;;4.60;;
78838;SDS011;68405;47.190;27.558;2023-07-28T05:15:04;5.30;;;3.70;;
78838;SDS011;68405;47.190;27.558;2023-07-28T05:17:37;6.30;;;4.20;;
78838;SDS011;68405;47.190;27.558;2023-07-28T05:20:07;3.70;;;3.10;;
78838;SDS011;68405;47.190;27.558;2023-07-28T05:22:37;5.10;;;3.40;;
78838;SDS011;68405;47.190;27.558;2023-07-28T05:25:06;4.40;;;2.50;;
78838;SDS011;68405;47.190;27.558;2023-07-28T05:27:36;3.70;;;2.70;;
78838;SDS011;68405;47.190;27.558;2023-07-28T05:30:06;3.70;;;2.20;;
78838;SDS011;68405;47.190;27.558;2023-07-28T05:32:35;4.30;;;2.10;;
78838;SDS011;68405;47.190;27.558;2023-07-28T05:35:05;3.30;;;1.70;;
78838;SDS011;68405;47.190;27.558;2023-07-28T05:37:35;2.60;;;2.10;;
78838;SDS011;68405;47.190;27.558;2023-07-28T05:40:05;3.30;;;1.80;;
78838;SDS011;68405;47.190;27.558;2023-07-28T05:42:35;2.90;;;2.00;;
78838;SDS011;68405;47.190;27.558;2023-07-28T05:45:05;3.40;;;2.10;;
78838;SDS011;68405;47.190;27.558;2023-07-28T05:47:36;5.00;;;1.90;;
78838;SDS011;68405;47.190;27.558;2023-07-28T05:50:06;3.80;;;1.90;;
78838;SDS011;68405;47.190;27.558;2023-07-28T05:52:35;4.10;;;1.90;;
78838;SDS011;68405;47.190;27.558;2023-07-28T05:55:05;7.30;;;2.40;;
78838;SDS011;68405;47.190;27.558;2023-07-28T05:57:35;3.40;;;1.80;;
78838;SDS011;68405;47.190;27.558;2023-07-28T06:00:05;3.80;;;1.90;;
78838;SDS011;68405;47.190;27.558;2023-07-28T06:02:36;6.00;;;2.30;;
78838;SDS011;68405;47.190;27.558;2023-07-28T06:05:06;4.20;;;2.00;;
78838;SDS011;68405;47.190;27.558;2023-07-28T06:07:36;4.50;;;2.30;;
78838;SDS011;68405;47.190;27.558;2023-07-28T06:10:06;2.80;;;1.90;;
78838;SDS011;68405;47.190;27.558;2023-07-28T06:12:36;2.40;;;1.80;;
78838;SDS011;68405;47.190;27.558;2023-07-28T06:15:06;4.00;;;1.80;;
78838;SDS011;68405;47.190;27.558;2023-07-28T06:17:36;4.00;;;1.90;;
78838;SDS011;68405;47.190;27.558;2023-07-28T06:20:06;1.70;;;1.50;;
78838;SDS011;68405;47.190;27.558;2023-07-28T06:22:37;3.00;;;2.00;;
78838;SDS011;68405;47.190;27.558;2023-07-28T06:25:06;3.10;;;1.90;;
78838;SDS011;68405;47.190;27.558;2023-07-28T06:27:35;3.20;;;1.80;;
78838;SDS011;68405;47.190;27.558;2023-07-28T06:30:07;3.40;;;1.90;;
78838;SDS011;68405;47.190;27.558;2023-07-28T06:32:37;2.40;;;2.00;;
78838;SDS011;68405;47.190;27.558;2023-07-28T06:35:07;3.10;;;2.00;;
78838;SDS011;68405;47.190;27.558;2023-07-28T06:37:36;2.10;;;1.60;;
78838;SDS011;68405;47.190;27.558;2023-07-28T06:40:06;4.20;;;1.80;;
78838;SDS011;68405;47.190;27.558;2023-07-28T06:42:37;4.50;;;2.40;;
78838;SDS011;68405;47.190;27.558;2023-07-28T06:45:06;3.90;;;2.10;;
78838;SDS011;68405;47.190;27.558;2023-07-28T06:47:35;2.30;;;2.10;;
78838;SDS011;68405;47.190;27.558;2023-07-28T06:50:05;2.50;;;1.90;;
78838;SDS011;68405;47.190;27.558;2023-07-28T06:52:35;3.30;;;2.00;;
78838;SDS011;68405;47.190;27.558;2023-07-28T06:55:04;2.90;;;1.70;;
78838;SDS011;68405;47.190;27.558;2023-07-28T06:57:33;2.80;;;2.10;;
78838;SDS011;68405;47.190;27.558;2023-07-28T07:00:02;1.80;;;1.60;;
78838;SDS011;68405;47.190;27.558;2023-07-28T07:02:34;4.80;;;1.70;;
78838;SDS011;68405;47.190;27.558;2023-07-28T07:05:03;2.20;;;1.80;;
78838;SDS011;68405;47.190;27.558;2023-07-28T07:07:34;2.80;;;1.80;;
78838;SDS011;68405;47.190;27.558;2023-07-28T07:10:03;4.00;;;2.00;;
78838;SDS011;68405;47.190;27.558;2023-07-28T07:12:33;3.40;;;2.10;;
78838;SDS011;68405;47.190;27.558;2023-07-28T07:15:03;2.20;;;1.90;;
78838;SDS011;68405;47.190;27.558;2023-07-28T07:17:34;4.00;;;1.90;;
78838;SDS011;68405;47.190;27.558;2023-07-28T07:20:04;2.80;;;1.70;;
78838;SDS011;68405;47.190;27.558;2023-07-28T07:22:35;2.10;;;1.60;;
78838;SDS011;68405;47.190;27.558;2023-07-28T07:25:04;2.80;;;1.30;;
78838;SDS011;68405;47.190;27.558;2023-07-28T07:27:34;1.70;;;1.40;;
78838;SDS011;68405;47.190;27.558;2023-07-28T07:30:04;2.00;;;1.80;;
78838;SDS011;68405;47.190;27.558;2023-07-28T07:32:34;4.00;;;1.40;;
78838;SDS011;68405;47.190;27.558;2023-07-28T07:35:04;2.60;;;1.70;;
78838;SDS011;68405;47.190;27.558;2023-07-28T07:37:35;1.60;;;1.50;;
78838;SDS011;68405;47.190;27.558;2023-07-28T07:40:06;2.20;;;1.80;;
78838;SDS011;68405;47.190;27.558;2023-07-28T07:42:42;3.40;;;1.70;;
78838;SDS011;68405;47.190;27.558;2023-07-28T07:45:13;2.30;;;1.70;;
78838;SDS011;68405;47.190;27.558;2023-07-28T07:47:42;2.10;;;1.90;;
78838;SDS011;68405;47.190;27.558;2023-07-28T07:50:12;2.20;;;1.50;;
78838;SDS011;68405;47.190;27.558;2023-07-28T07:52:41;1.80;;;1.60;;
78838;SDS011;68405;47.190;27.558;2023-07-28T07:55:10;3.70;;;1.40;;
78838;SDS011;68405;47.190;27.558;2023-07-28T07:57:38;1.50;;;1.40;;
78838;SDS011;68405;47.190;27.558;2023-07-28T08:00:09;2.20;;;1.60;;
78838;SDS011;68405;47.190;27.558;2023-07-28T08:02:40;2.00;;;1.80;;
78838;SDS011;68405;47.190;27.558;2023-07-28T08:05:09;1.90;;;1.30;;
78838;SDS011;68405;47.190;27.558;2023-07-28T08:07:38;1.80;;;1.20;;
78838;SDS011;68405;47.190;27.558;2023-07-28T08:10:07;2.10;;;1.60;;
78838;SDS011;68405;47.190;27.558;2023-07-28T08:12:37;3.50;;;1.90;;
78838;SDS011;68405;47.190;27.558;2023-07-28T08:15:06;2.60;;;1.60;;
78838;SDS011;68405;47.190;27.558;2023-07-28T08:17:36;2.60;;;1.70;;
78838;SDS011;68405;47.190;27.558;2023-07-28T08:20:06;2.50;;;1.50;;
78838;SDS011;68405;47.190;27.558;2023-07-28T08:22:36;2.40;;;1.60;;
78838;SDS011;68405;47.190;27.558;2023-07-28T08:25:06;2.40;;;1.60;;
78838;SDS011;68405;47.190;27.558;2023-07-28T08:27:35;1.70;;;1.50;;
78838;SDS011;68405;47.190;27.558;2023-07-28T08:30:05;2.70;;;1.70;;
78838;SDS011;68405;47.190;27.558;2023-07-28T08:32:35;2.80;;;1.60;;
78838;SDS011;68405;47.190;27.558;2023-07-28T08:35:05;2.00;;;1.60;;
78838;SDS011;68405;47.190;27.558;2023-07-28T08:37:35;1.70;;;1.30;;
78838;SDS011;68405;47.190;27.558;2023-07-28T08:40:05;1.70;;;1.60;;
78838;SDS011;68405;47.190;27.558;2023-07-28T08:42:37;1.80;;;1.50;;
78838;SDS011;68405;47.190;27.558;2023-07-28T08:45:07;1.90;;;1.20;;
78838;SDS011;68405;47.190;27.558;2023-07-28T08:47:37;1.50;;;1.40;;
78838;SDS011;68405;47.190;27.558;2023-07-28T08:50:07;2.10;;;1.60;;
78838;SDS011;68405;47.190;27.558;2023-07-28T08:52:36;2.50;;;1.60;;
78838;SDS011;68405;47.190;27.558;2023-07-28T08:55:06;1.70;;;1.20;;
78838;SDS011;68405;47.190;27.558;2023-07-28T08:57:36;2.90;;;1.30;;
78838;SDS011;68405;47.190;27.558;2023-07-28T09:00:09;1.40;;;1.30;;
78838;SDS011;68405;47.190;27.558;2023-07-28T09:02:40;1.40;;;1.30;;
78838;SDS011;68405;47.190;27.558;2023-07-28T09:05:18;3.90;;;1.70;;
78838;SDS011;68405;47.190;27.558;2023-07-28T09:07:47;3.00;;;1.50;;
78838;SDS011;68405;47.190;27.558;2023-07-28T09:10:16;1.40;;;1.10;;
78838;SDS011;68405;47.190;27.558;2023-07-28T09:12:46;2.20;;;1.50;;
78838;SDS011;68405;47.190;27.558;2023-07-28T09:15:16;1.90;;;1.50;;
78838;SDS011;68405;47.190;27.558;2023-07-28T09:17:45;2.10;;;1.60;;
78838;SDS011;68405;47.190;27.558;2023-07-28T09:20:15;1.50;;;1.40;;
78838;SDS011;68405;47.190;27.558;2023-07-28T09:22:45;2.30;;;1.30;;
78838;SDS011;68405;47.190;27.558;2023-07-28T09:25:18;1.80;;;1.40;;
78838;SDS011;68405;47.190;27.558;2023-07-28T09:27:50;1.80;;;1.30;;
78838;SDS011;68405;47.190;27.558;2023-07-28T09:30:20;1.60;;;1.10;;
78838;SDS011;68405;47.190;27.558;2023-07-28T09:32:50;2.60;;;1.30;;
78838;SDS011;68405;47.190;27.558;2023-07-28T09:35:20;1.10;;;1.00;;
78838;SDS011;68405;47.190;27.558;2023-07-28T09:37:50;1.30;;;1.10;;
78838;SDS011;68405;47.190;27.558;2023-07-28T09:40:21;1.80;;;1.20;;
78838;SDS011;68405;47.190;27.558;2023-07-28T09:42:50;4.30;;;1.20;;
78838;SDS011;68405;47.190;27.558;2023-07-28T09:45:22;1.60;;;1.10;;
78838;SDS011;68405;47.190;27.558;2023-07-28T09:47:51;1.80;;;1.30;;
78838;SDS011;68405;47.190;27.558;2023-07-28T09:50:25;1.80;;;1.20;;
78838;SDS011;68405;47.190;27.558;2023-07-28T09:52:58;2.90;;;1.10;;
78838;SDS011;68405;47.190;27.558;2023-07-28T09:55:29;2.30;;;1.10;;
78838;SDS011;68405;47.190;27.558;2023-07-28T09:58:01;1.80;;;1.00;;
78838;SDS011;68405;47.190;27.558;2023-07-28T10:00:36;1.20;;;1.10;;
78838;SDS011;68405;47.190;27.558;2023-07-28T10:03:06;2.40;;;1.00;;
78838;SDS011;68405;47.190;27.558;2023-07-28T10:05:36;1.70;;;1.20;;
78838;SDS011;68405;47.190;27.558;2023-07-28T10:08:05;5.30;;;1.10;;
78838;SDS011;68405;47.190;27.558;2023-07-28T10:10:35;2.10;;;0.80;;
78838;SDS011;68405;47.190;27.558;2023-07-28T10:13:03;1.80;;;1.10;;
78838;SDS011;68405;47.190;27.558;2023-07-28T10:15:32;1.60;;;1.00;;
78838;SDS011;68405;47.190;27.558;2023-07-28T10:18:01;3.30;;;1.20;;
78838;SDS011;68405;47.190;27.558;2023-07-28T10:20:35;22.10;;;3.50;;
78838;SDS011;68405;47.190;27.558;2023-07-28T10:23:06;5.50;;;1.20;;
78838;SDS011;68405;47.190;27.558;2023-07-28T10:25:40;2.70;;;1.00;;
78838;SDS011;68405;47.190;27.558;2023-07-28T10:30:58;12.90;;;2.00;;
78838;SDS011;68405;47.190;27.558;2023-07-28T10:33:29;2.20;;;0.90;;
78838;SDS011;68405;47.190;27.558;2023-07-28T10:36:08;1.80;;;1.00;;
78838;SDS011;68405;47.190;27.558;2023-07-28T10:38:40;2.10;;;1.20;;
78838;SDS011;68405;47.190;27.558;2023-07-28T10:41:14;11.00;;;2.10;;
78838;SDS011;68405;47.190;27.558;2023-07-28T10:43:45;3.70;;;1.20;;
78838;SDS011;68405;47.190;27.558;2023-07-28T10:46:14;4.20;;;1.20;;
78838;SDS011;68405;47.190;27.558;2023-07-28T10:48:46;2.20;;;1.60;;
78838;SDS011;68405;47.190;27.558;2023-07-28T10:51:20;3.30;;;1.20;;
78838;SDS011;68405;47.190;27.558;2023-07-28T10:53:51;2.40;;;1.10;;
78838;SDS011;68405;47.190;27.558;2023-07-28T10:56:22;2.00;;;0.90;;
78838;SDS011;68405;47.190;27.558;2023-07-28T10:58:56;8.30;;;5.20;;
78838;SDS011;68405;47.190;27.558;2023-07-28T11:01:31;2.70;;;1.10;;
78838;SDS011;68405;47.190;27.558;2023-07-28T11:04:07;4.30;;;1.10;;
78838;SDS011;68405;47.190;27.558;2023-07-28T11:06:40;2.20;;;1.10;;
78838;SDS011;68405;47.190;27.558;2023-07-28T11:09:11;9.10;;;1.40;;
78838;SDS011;68405;47.190;27.558;2023-07-28T11:11:41;2.70;;;0.90;;
78838;SDS011;68405;47.190;27.558;2023-07-28T11:14:11;6.70;;;1.30;;
78838;SDS011;68405;47.190;27.558;2023-07-28T11:16:42;4.60;;;1.80;;
78838;SDS011;68405;47.190;27.558;2023-07-28T11:19:14;6.20;;;1.40;;
78838;SDS011;68405;47.190;27.558;2023-07-28T11:21:46;2.80;;;1.10;;
78838;SDS011;68405;47.190;27.558;2023-07-28T11:24:18;5.10;;;1.20;;
78838;SDS011;68405;47.190;27.558;2023-07-28T11:26:49;3.50;;;1.30;;
78838;SDS011;68405;47.190;27.558;2023-07-28T11:29:18;1.30;;;0.90;;
78838;SDS011;68405;47.190;27.558;2023-07-28T11:31:48;1.60;;;1.20;;
78838;SDS011;68405;47.190;27.558;2023-07-28T11:34:17;4.70;;;1.90;;
78838;SDS011;68405;47.190;27.558;2023-07-28T11:36:46;2.20;;;1.20;;
78838;SDS011;68405;47.190;27.558;2023-07-28T11:39:16;1.50;;;1.10;;
78838;SDS011;68405;47.190;27.558;2023-07-28T11:41:48;3.10;;;1.50;;
78838;SDS011;68405;47.190;27.558;2023-07-28T11:44:20;1.80;;;1.30;;
78838;SDS011;68405;47.190;27.558;2023-07-28T11:46:50;3.30;;;1.70;;
78838;SDS011;68405;47.190;27.558;2023-07-28T11:49:22;2.90;;;1.10;;
78838;SDS011;68405;47.190;27.558;2023-07-28T11:51:51;2.10;;;1.00;;
78838;SDS011;68405;47.190;27.558;2023-07-28T11:54:26;4.10;;;1.50;;
78838;SDS011;68405;47.190;27.558;2023-07-28T11:56:56;4.40;;;1.70;;
78838;SDS011;68405;47.190;27.558;2023-07-28T11:59:25;2.60;;;1.00;;
78838;SDS011;68405;47.190;27.558;2023-07-28T12:01:55;3.10;;;1.30;;
78838;SDS011;68405;47.190;27.558;2023-07-28T12:04:25;2.80;;;1.00;;
78838;SDS011;68405;47.190;27.558;2023-07-28T12:07:05;2.60;;;1.20;;
78838;SDS011;68405;47.190;27.558;2023-07-28T12:09:50;5.90;;;1.40;;
78838;SDS011;68405;47.190;27.558;2023-07-28T12:12:20;3.60;;;1.40;;
78838;SDS011;68405;47.190;27.558;2023-07-28T12:14:50;2.50;;;1.20;;
78838;SDS011;68405;47.190;27.558;2023-07-28T12:17:20;6.20;;;1.50;;
78838;SDS011;68405;47.190;27.558;2023-07-28T12:19:58;2.10;;;0.90;;
78838;SDS011;68405;47.190;27.558;2023-07-28T12:22:28;3.10;;;1.10;;
78838;SDS011;68405;47.190;27.558;2023-07-28T12:24:57;3.10;;;1.00;;
78838;SDS011;68405;47.190;27.558;2023-07-28T12:27:26;2.40;;;1.30;;
78838;SDS011;68405;47.190;27.558;2023-07-28T12:29:55;3.30;;;1.00;;
78838;SDS011;68405;47.190;27.558;2023-07-28T12:32:24;4.30;;;1.00;;
78838;SDS011;68405;47.190;27.558;2023-07-28T12:34:53;2.20;;;1.20;;
78838;SDS011;68405;47.190;27.558;2023-07-28T12:37:22;2.30;;;1.30;;
78838;SDS011;68405;47.190;27.558;2023-07-28T12:39:51;3.40;;;1.20;;
78838;SDS011;68405;47.190;27.558;2023-07-28T12:42:20;5.20;;;1.30;;
78838;SDS011;68405;47.190;27.558;2023-07-28T12:44:49;3.20;;;1.30;;
78838;SDS011;68405;47.190;27.558;2023-07-28T12:47:18;3.30;;;1.20;;
78838;SDS011;68405;47.190;27.558;2023-07-28T12:49:46;3.10;;;1.20;;
78838;SDS011;68405;47.190;27.558;2023-07-28T12:52:15;1.80;;;1.40;;
78838;SDS011;68405;47.190;27.558;2023-07-28T12:54:44;2.60;;;1.10;;
78838;SDS011;68405;47.190;27.558;2023-07-28T12:57:14;4.00;;;1.50;;
78838;SDS011;68405;47.190;27.558;2023-07-28T12:59:43;4.50;;;1.40;;
78838;SDS011;68405;47.190;27.558;2023-07-28T13:02:12;3.50;;;1.80;;
78838;SDS011;68405;47.190;27.558;2023-07-28T13:04:41;2.90;;;1.50;;
78838;SDS011;68405;47.190;27.558;2023-07-28T13:07:10;2.40;;;1.40;;
78838;SDS011;68405;47.190;27.558;2023-07-28T13:09:39;3.70;;;1.10;;
78838;SDS011;68405;47.190;27.558;2023-07-28T13:12:09;3.00;;;1.10;;
78838;SDS011;68405;47.190;27.558;2023-07-28T13:14:37;1.30;;;0.90;;
78838;SDS011;68405;47.190;27.558;2023-07-28T13:17:06;1.50;;;1.20;;
78838;SDS011;68405;47.190;27.558;2023-07-28T13:19:35;1.10;;;0.90;;
78838;SDS011;68405;47.190;27.558;2023-07-28T13:22:04;1.90;;;1.00;;
78838;SDS011;68405;47.190;27.558;2023-07-28T13:24:33;3.80;;;1.30;;
78838;SDS011;68405;47.190;27.558;2023-07-28T13:27:03;2.40;;;1.20;;
78838;SDS011;68405;47.190;27.558;2023-07-28T13:29:33;3.10;;;1.40;;
78838;SDS011;68405;47.190;27.558;2023-07-28T13:32:02;1.90;;;1.00;;
78838;SDS011;68405;47.190;27.558;2023-07-28T13:34:42;2.80;;;1.30;;
78838;SDS011;68405;47.190;27.558;2023-07-28T13:37:11;2.20;;;1.20;;
78838;SDS011;68405;47.190;27.558;2023-07-28T13:39:40;1.50;;;0.90;;
78838;SDS011;68405;47.190;27.558;2023-07-28T13:42:09;5.60;;;1.50;;
78838;SDS011;68405;47.190;27.558;2023-07-28T13:44:41;2.60;;;1.30;;
78838;SDS011;68405;47.190;27.558;2023-07-28T13:47:10;4.10;;;1.10;;
78838;SDS011;68405;47.190;27.558;2023-07-28T13:49:39;2.50;;;1.30;;
78838;SDS011;68405;47.190;27.558;2023-07-28T13:52:08;2.90;;;1.00;;
78838;SDS011;68405;47.190;27.558;2023-07-28T13:54:37;1.50;;;1.00;;
78838;SDS011;68405;47.190;27.558;2023-07-28T13:57:06;2.20;;;0.90;;
78838;SDS011;68405;47.190;27.558;2023-07-28T13:59:35;1.80;;;1.00;;
78838;SDS011;68405;47.190;27.558;2023-07-28T14:02:04;1.80;;;1.20;;
78838;SDS011;68405;47.190;27.558;2023-07-28T14:04:33;2.70;;;1.30;;
78838;SDS011;68405;47.190;27.558;2023-07-28T14:07:02;3.30;;;1.40;;
78838;SDS011;68405;47.190;27.558;2023-07-28T14:09:32;2.40;;;1.10;;
78838;SDS011;68405;47.190;27.558;2023-07-28T14:12:01;3.70;;;1.30;;
78838;SDS011;68405;47.190;27.558;2023-07-28T14:14:31;1.80;;;1.00;;
78838;SDS011;68405;47.190;27.558;2023-07-28T14:17:00;1.70;;;0.80;;
78838;SDS011;68405;47.190;27.558;2023-07-28T14:19:29;3.30;;;1.30;;
78838;SDS011;68405;47.190;27.558;2023-07-28T14:21:58;4.10;;;1.30;;
78838;SDS011;68405;47.190;27.558;2023-07-28T14:24:27;3.70;;;1.50;;
78838;SDS011;68405;47.190;27.558;2023-07-28T14:26:56;2.20;;;1.20;;
78838;SDS011;68405;47.190;27.558;2023-07-28T14:29:25;3.70;;;1.30;;
78838;SDS011;68405;47.190;27.558;2023-07-28T14:31:54;1.80;;;1.00;;
78838;SDS011;68405;47.190;27.558;2023-07-28T14:34:23;1.50;;;1.00;;
78838;SDS011;68405;47.190;27.558;2023-07-28T14:36:52;1.90;;;1.30;;
78838;SDS011;68405;47.190;27.558;2023-07-28T14:39:21;2.30;;;1.20;;
78838;SDS011;68405;47.190;27.558;2023-07-28T14:41:50;2.30;;;1.40;;
78838;SDS011;68405;47.190;27.558;2023-07-28T14:44:19;2.80;;;1.60;;
78838;SDS011;68405;47.190;27.558;2023-07-28T14:46:48;1.90;;;1.00;;
78838;SDS011;68405;47.190;27.558;2023-07-28T14:49:17;2.00;;;1.20;;
78838;SDS011;68405;47.190;27.558;2023-07-28T14:51:46;1.70;;;1.00;;